createdAt,value
2022-09-10T00:01:22.182Z,57.34
2022-09-10T00:03:50.291Z,57.58
2022-09-10T00:06:19.291Z,57.51
2022-09-10T00:08:47.313Z,57.46
2022-09-10T00:11:15.357Z,57.72
2022-09-10T00:13:43.855Z,58.42
2022-09-10T00:16:13.465Z,58.06
2022-09-10T00:18:41.848Z,57.83
2022-09-10T00:21:12.837Z,57.45
2022-09-10T00:23:40.673Z,57.37
2022-09-10T00:26:21.974Z,57.88
2022-09-10T00:28:51.687Z,60.61
2022-09-10T00:31:19.982Z,59.43
2022-09-10T00:33:48.075Z,58.03
2022-09-10T00:36:24.476Z,58.65
2022-09-10T00:38:55.163Z,59.05
2022-09-10T00:41:27.634Z,59.49
2022-09-10T00:44:03.917Z,61.14
2022-09-10T00:46:59.482Z,62.59
2022-09-10T00:49:35.100Z,62.98
2022-09-10T00:52:03.018Z,63.29
2022-09-10T00:54:34.036Z,61.24
2022-09-10T00:57:06.528Z,60.89
2022-09-10T00:59:34.973Z,61.05
2022-09-10T01:02:02.878Z,59.99
2022-09-10T01:04:31.602Z,59.60
2022-09-10T01:07:00.750Z,61.27
2022-09-10T01:09:29.547Z,63.02
2022-09-10T01:12:06.278Z,62.15
2022-09-10T01:14:58.276Z,63.62
2022-09-10T01:17:45.249Z,63.17
2022-09-10T01:20:48.479Z,64.94
2022-09-10T01:23:34.223Z,61.78
2022-09-10T01:26:25.524Z,59.82
2022-09-10T01:29:10.528Z,60.32
2022-09-10T01:31:54.429Z,59.75
2022-09-10T01:34:34.876Z,59.39
2022-09-10T01:37:11.551Z,60.65
2022-09-10T01:39:39.841Z,60.67
2022-09-10T01:42:07.983Z,61.31
2022-09-10T01:44:47.871Z,60.32
2022-09-10T01:47:43.874Z,59.13
2022-09-10T01:50:30.343Z,61.15
2022-09-10T01:53:14.889Z,62.23
2022-09-10T01:56:10.213Z,62.11
2022-09-10T01:58:45.424Z,61.84
2022-09-10T02:01:30.022Z,62.75
2022-09-10T02:04:01.744Z,64.18
2022-09-10T02:06:33.373Z,62.44
2022-09-10T02:09:03.003Z,62.50
2022-09-10T02:11:43.540Z,62.82
2022-09-10T02:14:14.657Z,62.60
2022-09-10T02:17:08.275Z,60.66
2022-09-10T02:19:35.603Z,62.22
2022-09-10T02:22:05.007Z,64.72
2022-09-10T02:24:32.437Z,66.29
2022-09-10T02:27:00.982Z,65.83
2022-09-10T02:29:28.976Z,66.24
2022-09-10T02:31:57.650Z,66.54
2022-09-10T02:34:24.889Z,66.09
2022-09-10T02:36:54.491Z,66.50
2022-09-10T02:39:24.068Z,66.66
2022-09-10T02:41:52.768Z,67.95
2022-09-10T02:44:21.320Z,66.56
2022-09-10T02:46:48.696Z,66.45
2022-09-10T02:49:15.980Z,66.29
2022-09-10T02:51:44.883Z,67.07
2022-09-10T02:54:13.324Z,68.09
2022-09-10T02:56:40.831Z,67.17
2022-09-10T02:59:08.469Z,66.24
2022-09-10T03:01:40.596Z,66.75
2022-09-10T03:04:10.063Z,67.31
2022-09-10T03:06:39.425Z,66.48
2022-09-10T03:09:06.818Z,67.49
2022-09-10T03:11:35.104Z,69.11
2022-09-10T03:14:02.604Z,69.40
2022-09-10T03:16:31.878Z,69.72
2022-09-10T03:19:03.049Z,69.05
2022-09-10T03:21:35.580Z,66.29
2022-09-10T03:24:10.320Z,69.05
2022-09-10T03:26:38.468Z,70.71
2022-09-10T03:29:05.814Z,70.06
2022-09-10T03:31:40.116Z,69.75
2022-09-10T03:34:08.906Z,68.29
2022-09-10T03:36:37.494Z,69.16
2022-09-10T03:39:08.280Z,69.17
2022-09-10T03:41:37.623Z,68.94
2022-09-10T03:44:05.800Z,67.03
2022-09-10T03:46:33.324Z,67.72
2022-09-10T03:49:02.693Z,69.70
2022-09-10T03:51:34.147Z,69.41
2022-09-10T03:54:03.088Z,67.76
2022-09-10T03:56:32.835Z,68.05
2022-09-10T03:59:00.560Z,67.48
2022-09-10T04:01:29.220Z,68.67
2022-09-10T04:03:58.280Z,70.00
2022-09-10T04:06:28.375Z,68.96
2022-09-10T04:08:56.116Z,66.27
2022-09-10T04:11:27.856Z,63.37
2022-09-10T04:13:57.032Z,62.49
2022-09-10T04:16:25.297Z,62.31
2022-09-10T04:18:52.650Z,61.33
2022-09-10T04:21:20.781Z,63.67
2022-09-10T04:23:54.692Z,65.38
2022-09-10T04:26:23.005Z,64.88
2022-09-10T04:28:51.487Z,62.43
2022-09-10T04:31:19.280Z,61.24
2022-09-10T04:33:47.207Z,62.47
2022-09-10T04:36:17.439Z,65.24
2022-09-10T04:38:45.381Z,67.97
2022-09-10T04:41:15.819Z,68.98
2022-09-10T04:43:43.905Z,68.65
2022-09-10T04:46:11.453Z,68.30
2022-09-10T04:48:41.867Z,69.63
2022-09-10T04:51:17.799Z,70.40
2022-09-10T04:53:51.837Z,71.92
2022-09-10T04:56:22.312Z,73.38
2022-09-10T04:58:52.201Z,74.30
2022-09-10T05:01:20.095Z,75.00
2022-09-10T05:03:51.031Z,73.35
2022-09-10T05:06:19.517Z,70.69
2022-09-10T05:08:48.412Z,68.00
2022-09-10T05:11:15.740Z,67.85
2022-09-10T05:13:43.765Z,70.70
2022-09-10T05:16:12.758Z,71.64
2022-09-10T05:18:40.785Z,69.83
2022-09-10T05:21:09.546Z,68.75
2022-09-10T05:23:36.860Z,66.53
2022-09-10T05:26:04.205Z,67.06
2022-09-10T05:28:31.641Z,65.40
2022-09-10T05:30:59.092Z,65.79
2022-09-10T05:33:28.618Z,66.22
2022-09-10T05:35:56.011Z,65.82
2022-09-10T05:38:24.993Z,67.15
2022-09-10T05:40:52.967Z,64.97
2022-09-10T05:43:21.644Z,65.33
2022-09-10T05:45:49.238Z,64.54
2022-09-10T05:48:17.971Z,65.73
2022-09-10T05:50:46.301Z,67.20
2022-09-10T05:53:14.320Z,66.62
2022-09-10T05:55:41.617Z,66.23
2022-09-10T05:58:09.458Z,65.53
2022-09-10T06:00:38.868Z,65.35
2022-09-10T06:03:06.552Z,66.84
2022-09-10T06:05:39.689Z,67.86
2022-09-10T06:08:08.901Z,66.47
2022-09-10T06:10:41.310Z,66.88
2022-09-10T06:13:09.221Z,67.33
2022-09-10T06:15:38.136Z,67.98
2022-09-10T06:18:05.758Z,66.95
2022-09-10T06:20:33.363Z,67.07
2022-09-10T06:23:01.346Z,66.89
2022-09-10T06:25:29.158Z,64.04
2022-09-10T06:27:57.846Z,63.85
2022-09-10T06:30:26.486Z,63.23
2022-09-10T06:32:54.373Z,62.44
2022-09-10T06:35:21.901Z,61.60
2022-09-10T06:37:50.667Z,61.96
2022-09-10T06:40:18.882Z,61.31
2022-09-10T06:42:46.247Z,62.01
2022-09-10T06:45:13.793Z,64.18
2022-09-10T06:48:37.658Z,64.88
2022-09-10T06:51:02.144Z,65.89
2022-09-10T06:53:34.446Z,64.48
2022-09-10T06:56:06.152Z,64.71
2022-09-10T06:58:35.506Z,65.44
2022-09-10T07:01:14.622Z,63.42
2022-09-10T07:03:46.907Z,60.95
2022-09-10T07:06:16.835Z,60.99
2022-09-10T07:08:47.342Z,60.79
2022-09-10T07:11:18.803Z,61.08
2022-09-10T07:13:52.231Z,60.97
2022-09-10T07:16:23.527Z,59.89
2022-09-10T07:18:58.723Z,61.14
2022-09-10T07:21:45.958Z,61.43
2022-09-10T07:24:15.434Z,59.84
2022-09-10T07:27:06.149Z,58.53
2022-09-10T07:29:35.582Z,58.48
2022-09-10T07:32:04.724Z,58.42
2022-09-10T07:34:34.808Z,56.98
2022-09-10T07:37:03.978Z,56.87
2022-09-10T07:39:32.334Z,58.15
2022-09-10T07:42:00.559Z,58.32
2022-09-10T07:44:30.558Z,58.28
2022-09-10T07:47:03.784Z,58.25
2022-09-10T07:49:32.941Z,57.84
2022-09-10T07:52:00.693Z,57.68
2022-09-10T07:54:36.600Z,60.72
2022-09-10T07:57:05.618Z,62.25
2022-09-10T07:59:34.549Z,63.07
2022-09-10T08:02:04.012Z,62.90
2022-09-10T08:04:36.548Z,62.77
2022-09-10T08:07:07.633Z,62.66
2022-09-10T08:09:37.970Z,61.59
2022-09-10T08:12:10.688Z,59.79
2022-09-10T08:14:38.351Z,58.54
2022-09-10T08:17:06.348Z,58.02
2022-09-10T08:19:39.735Z,57.01
2022-09-10T08:22:11.456Z,55.50
2022-09-10T08:24:45.093Z,54.05
2022-09-10T08:27:12.479Z,52.92
2022-09-10T08:29:40.011Z,52.71
2022-09-10T08:32:13.519Z,51.81
2022-09-10T08:34:42.220Z,51.07
2022-09-10T08:37:12.702Z,50.68
2022-09-10T08:39:41.451Z,51.41
2022-09-10T08:42:31.146Z,52.84
2022-09-10T08:45:05.430Z,51.65
2022-09-10T08:47:53.738Z,50.67
2022-09-10T08:51:03.200Z,51.52
2022-09-10T08:53:58.236Z,51.27
2022-09-10T08:56:28.570Z,51.71
2022-09-10T08:59:07.029Z,51.02
2022-09-10T09:01:43.743Z,49.71
2022-09-10T09:04:51.304Z,50.75
2022-09-10T09:07:21.069Z,49.82
2022-09-10T09:09:54.723Z,49.78
2022-09-10T09:12:53.543Z,52.24
2022-09-10T09:15:43.499Z,52.03
2022-09-10T09:18:25.746Z,52.90
2022-09-10T09:21:01.164Z,53.28
2022-09-10T09:24:14.329Z,54.24
2022-09-10T09:26:50.321Z,51.88
2022-09-10T09:29:29.030Z,52.76
2022-09-10T09:32:03.875Z,52.01
2022-09-10T09:34:45.842Z,50.51
2022-09-10T09:37:21.684Z,49.09
2022-09-10T09:40:06.728Z,48.39
2022-09-10T09:42:54.039Z,49.97
2022-09-10T09:45:35.341Z,49.10
2022-09-10T09:48:04.919Z,48.83
2022-09-10T09:50:39.114Z,50.46
2022-09-10T09:53:06.452Z,50.95
2022-09-10T09:55:44.915Z,50.83
2022-09-10T09:58:21.446Z,51.07
2022-09-10T10:01:03.977Z,50.88
2022-09-10T10:03:37.938Z,51.15
2022-09-10T10:06:08.701Z,49.64
2022-09-10T10:08:58.324Z,50.23
2022-09-10T10:11:51.539Z,49.23
2022-09-10T10:14:24.402Z,49.94
2022-09-10T10:16:57.298Z,50.49
2022-09-10T10:19:37.118Z,50.96
2022-09-10T10:22:19.924Z,50.73
2022-09-10T10:24:50.013Z,50.77
2022-09-10T10:27:35.517Z,48.90
2022-09-10T10:30:18.533Z,47.57
2022-09-10T10:32:58.217Z,47.09
2022-09-10T10:35:34.500Z,45.95
2022-09-10T10:38:27.516Z,47.83
2022-09-10T10:41:33.548Z,47.90
2022-09-10T10:44:44.564Z,48.13
2022-09-10T10:47:24.002Z,46.65
2022-09-10T10:50:10.137Z,47.41
2022-09-10T10:53:04.094Z,48.20
2022-09-10T10:55:38.445Z,47.75
2022-09-10T10:58:40.753Z,48.68
2022-09-10T11:01:18.617Z,48.31
2022-09-10T11:04:08.152Z,48.04
2022-09-10T11:06:44.628Z,45.97
2022-09-10T11:09:39.477Z,44.91
2022-09-10T11:12:18.391Z,47.01
2022-09-10T11:14:59.232Z,47.09
2022-09-10T11:17:53.567Z,45.23
2022-09-10T11:20:30.285Z,46.09
2022-09-10T11:23:07.388Z,46.44
2022-09-10T11:26:00.796Z,45.54
2022-09-10T11:28:38.988Z,44.43
2022-09-10T11:31:18.787Z,45.94
2022-09-10T11:34:00.456Z,44.07
2022-09-10T11:36:42.412Z,43.96
2022-09-10T11:39:35.818Z,41.93
2022-09-10T11:42:17.040Z,37.50
2022-09-10T11:44:47.918Z,36.57
2022-09-10T11:47:24.961Z,36.79
2022-09-10T11:50:22.477Z,39.19
2022-09-10T11:52:50.958Z,39.82
2022-09-10T11:55:18.579Z,39.28
2022-09-10T11:58:13.878Z,39.84
2022-09-10T12:01:15.044Z,42.38
2022-09-10T12:04:21.207Z,43.91
2022-09-10T12:07:28.002Z,41.86
2022-09-10T12:10:02.036Z,45.26
2022-09-10T12:12:51.488Z,44.91
2022-09-10T12:15:26.211Z,44.94
2022-09-10T12:18:05.379Z,47.77
2022-09-10T12:20:42.546Z,52.72
2022-09-10T12:23:19.399Z,54.51
2022-09-10T12:26:01.167Z,55.52
2022-09-10T12:28:46.092Z,55.20
2022-09-10T12:31:21.249Z,56.01
2022-09-10T12:33:55.010Z,56.92
2022-09-10T12:36:37.749Z,58.08
2022-09-10T12:39:26.232Z,58.49
2022-09-10T12:41:54.135Z,58.11
2022-09-10T12:44:37.051Z,56.01
2022-09-10T12:47:17.125Z,52.83
2022-09-10T12:49:56.050Z,52.21
2022-09-10T12:52:37.329Z,50.23
2022-09-10T12:55:13.629Z,51.62
2022-09-10T12:58:07.383Z,50.62
2022-09-10T13:00:54.889Z,49.46
2022-09-10T13:03:25.975Z,48.44
2022-09-10T13:05:56.912Z,48.35
2022-09-10T13:08:37.678Z,48.50
2022-09-10T13:11:20.329Z,47.67
2022-09-10T13:14:00.877Z,48.79
2022-09-10T13:16:28.754Z,48.29
2022-09-10T13:19:18.220Z,49.20
2022-09-10T13:21:52.634Z,48.16
2022-09-10T13:24:36.286Z,48.50
2022-09-10T13:27:26.693Z,48.27
2022-09-10T13:30:20.779Z,47.78
2022-09-10T13:32:52.509Z,48.19
2022-09-10T13:35:26.595Z,50.01
2022-09-10T13:38:03.704Z,49.87
2022-09-10T13:40:35.204Z,49.14
2022-09-10T13:43:23.445Z,47.97
2022-09-10T13:45:57.489Z,46.70
2022-09-10T13:48:30.983Z,47.21
2022-09-10T13:51:06.869Z,46.79
2022-09-10T13:53:36.305Z,45.72
2022-09-10T13:56:14.470Z,45.86
2022-09-10T13:58:50.075Z,46.67
2022-09-10T14:01:18.690Z,46.16
2022-09-10T14:03:49.943Z,48.25
2022-09-10T14:06:25.488Z,48.50
2022-09-10T14:08:58.064Z,48.69
2022-09-10T14:11:33.757Z,47.78
2022-09-10T14:14:17.008Z,48.73
2022-09-10T14:16:47.370Z,47.51
2022-09-10T14:19:20.351Z,46.50
2022-09-10T14:21:50.658Z,47.62
2022-09-10T14:24:30.874Z,48.14
2022-09-10T14:27:18.864Z,48.18
2022-09-10T14:29:47.419Z,48.51
2022-09-10T14:32:36.884Z,48.69
2022-09-10T14:35:36.305Z,48.30
2022-09-10T14:38:09.469Z,48.33
2022-09-10T14:40:38.265Z,48.66
2022-09-10T14:43:16.730Z,48.87
2022-09-10T14:45:48.070Z,49.10
2022-09-10T14:49:02.105Z,48.54
2022-09-10T14:51:29.424Z,48.59
2022-09-10T14:53:59.020Z,48.53
2022-09-10T14:56:33.745Z,47.93
2022-09-10T14:59:15.035Z,47.67
2022-09-10T15:01:44.948Z,48.66
2022-09-10T15:04:18.487Z,47.87
2022-09-10T15:06:45.955Z,47.43
2022-09-10T15:09:15.207Z,46.97
2022-09-10T15:11:54.997Z,46.33
2022-09-10T15:14:23.467Z,45.81
2022-09-10T15:16:52.464Z,45.43
2022-09-10T15:19:20.308Z,44.97
2022-09-10T15:21:48.331Z,43.90
2022-09-10T15:24:20.115Z,45.32
2022-09-10T15:26:48.674Z,46.27
2022-09-10T15:29:18.391Z,46.72
2022-09-10T15:31:47.330Z,47.24
2022-09-10T15:34:15.827Z,48.18
2022-09-10T15:36:44.527Z,49.63
2022-09-10T15:39:13.471Z,50.14
2022-09-10T15:41:44.179Z,49.95
2022-09-10T15:44:18.696Z,49.29
2022-09-10T15:46:47.452Z,48.95
2022-09-10T15:49:15.806Z,48.91
2022-09-10T15:51:44.292Z,48.51
2022-09-10T15:54:18.160Z,49.25
2022-09-10T15:56:48.449Z,50.00
2022-09-10T15:59:16.955Z,49.79
2022-09-10T16:01:45.186Z,50.37
2022-09-10T16:04:16.293Z,49.24
2022-09-10T16:06:48.717Z,49.39
2022-09-10T16:09:21.106Z,48.61
2022-09-10T16:11:48.905Z,49.52
2022-09-10T16:14:18.737Z,50.33
2022-09-10T16:16:49.955Z,49.58
2022-09-10T16:19:17.873Z,50.11
2022-09-10T16:21:48.695Z,49.79
2022-09-10T16:24:16.178Z,47.50
2022-09-10T16:26:48.236Z,46.29
2022-09-10T16:29:19.839Z,47.72
2022-09-10T16:31:47.546Z,48.98
2022-09-10T16:34:20.012Z,48.91
2022-09-10T16:36:51.762Z,49.51
2022-09-10T16:39:20.359Z,49.63
2022-09-10T16:41:49.419Z,49.09
2022-09-10T16:44:18.412Z,49.83
2022-09-10T16:46:47.285Z,50.81
2022-09-10T16:49:18.505Z,51.07
2022-09-10T16:51:47.955Z,52.08
2022-09-10T16:54:19.637Z,51.32
2022-09-10T16:56:48.528Z,51.95
2022-09-10T16:59:19.809Z,52.32
2022-09-10T17:01:48.672Z,51.86
2022-09-10T17:04:22.346Z,52.18
2022-09-10T17:06:51.447Z,51.00
2022-09-10T17:09:18.824Z,50.93
2022-09-10T17:11:46.326Z,50.70
2022-09-10T17:14:13.645Z,50.62
2022-09-10T17:16:42.476Z,49.95
2022-09-10T17:19:15.460Z,48.54
2022-09-10T17:21:51.470Z,48.28
2022-09-10T17:24:21.220Z,48.41
2022-09-10T17:26:49.974Z,47.29
2022-09-10T17:29:23.039Z,47.57
2022-09-10T17:31:52.374Z,50.44
2022-09-10T17:34:24.725Z,52.90
2022-09-10T17:36:52.516Z,54.23
2022-09-10T17:39:20.090Z,55.13
2022-09-10T17:41:48.100Z,55.57
2022-09-10T17:44:16.743Z,55.83
2022-09-10T17:46:45.282Z,56.26
2022-09-10T17:49:16.040Z,56.60
2022-09-10T17:51:44.104Z,56.96
2022-09-10T17:54:13.376Z,56.99
2022-09-10T17:56:42.025Z,57.58
2022-09-10T17:59:13.169Z,58.41
2022-09-10T18:01:41.822Z,58.81
2022-09-10T18:04:14.867Z,59.39
2022-09-10T18:06:42.295Z,61.70
2022-09-10T18:09:11.504Z,63.24
2022-09-10T18:11:40.704Z,64.18
2022-09-10T18:14:08.660Z,66.32
2022-09-10T18:16:36.705Z,67.32
2022-09-10T18:19:13.926Z,68.53
2022-09-10T18:21:45.715Z,69.49
2022-09-10T18:24:21.202Z,70.35
2022-09-10T18:26:50.135Z,70.58
2022-09-10T18:29:30.247Z,70.83
2022-09-10T18:32:00.880Z,71.06
2022-09-10T18:34:30.386Z,71.27
2022-09-10T18:37:00.774Z,72.04
2022-09-10T18:39:31.349Z,72.68
2022-09-10T18:42:00.858Z,72.66
2022-09-10T18:44:33.447Z,73.53
2022-09-10T18:47:01.047Z,73.83
2022-09-10T18:49:28.478Z,74.02
2022-09-10T18:51:57.039Z,74.12
2022-09-10T18:54:28.974Z,74.59
2022-09-10T18:56:57.534Z,75.43
2022-09-10T18:59:25.863Z,76.08
2022-09-10T19:01:56.183Z,76.50
2022-09-10T19:04:26.986Z,77.32
2022-09-10T19:06:55.446Z,77.93
2022-09-10T19:09:31.215Z,78.22
2022-09-10T19:12:00.669Z,78.36
2022-09-10T19:14:31.191Z,78.58
2022-09-10T19:17:00.689Z,78.76
2022-09-10T19:19:34.121Z,78.83
2022-09-10T19:22:04.021Z,78.83
2022-09-10T19:27:19.361Z,78.80
2022-09-10T19:29:47.665Z,78.78
2022-09-10T19:32:15.374Z,79.12
2022-09-10T19:34:44.481Z,79.45
2022-09-10T19:37:13.124Z,79.45
2022-09-10T19:39:40.595Z,79.54
2022-09-10T19:42:08.273Z,79.54
2022-09-10T19:44:35.659Z,79.60
2022-09-10T19:47:04.251Z,79.86
2022-09-10T19:49:32.077Z,79.78
2022-09-10T19:52:00.406Z,79.81
2022-09-10T19:54:28.900Z,76.36
2022-09-10T19:56:56.621Z,74.44
2022-09-10T19:59:24.002Z,69.66
2022-09-10T20:01:51.435Z,69.84
2022-09-10T20:04:19.227Z,68.69
2022-09-10T20:06:47.832Z,67.86
2022-09-10T20:09:15.177Z,67.52
2022-09-10T20:11:42.562Z,67.22
2022-09-10T20:14:14.434Z,67.16
2022-09-10T20:16:44.175Z,67.43
2022-09-10T20:19:14.708Z,66.39
2022-09-10T20:21:42.561Z,66.39
2022-09-10T20:24:11.415Z,66.66
2022-09-10T20:26:44.006Z,67.03
2022-09-10T20:29:14.115Z,66.63
2022-09-10T20:31:43.462Z,66.83
2022-09-10T20:34:17.048Z,66.65
2022-09-10T20:36:44.502Z,64.95
2022-09-10T20:39:17.223Z,64.42
2022-09-10T20:41:45.121Z,63.78
2022-09-10T20:44:16.148Z,63.80
2022-09-10T20:46:44.243Z,64.16
2022-09-10T20:49:14.184Z,63.27
2022-09-10T20:51:45.018Z,63.33
2022-09-10T20:54:15.091Z,63.08
2022-09-10T20:56:44.429Z,63.15
2022-09-10T20:59:14.834Z,63.41
2022-09-10T21:01:44.406Z,63.52
2022-09-10T21:04:13.172Z,63.86
2022-09-10T21:06:41.006Z,63.58
2022-09-10T21:09:08.758Z,63.20
2022-09-10T21:11:36.432Z,63.31
2022-09-10T21:14:05.807Z,62.83
2022-09-10T21:16:35.713Z,63.41
2022-09-10T21:19:08.163Z,62.62
2022-09-10T21:21:36.669Z,62.66
2022-09-10T21:24:09.135Z,63.24
2022-09-10T21:26:39.566Z,63.33
2022-09-10T21:29:11.038Z,63.23
2022-09-10T21:31:39.014Z,63.59
2022-09-10T21:34:06.616Z,63.65
2022-09-10T21:36:36.041Z,63.73
2022-09-10T21:39:06.925Z,63.77
2022-09-10T21:41:37.122Z,63.87
2022-09-10T21:44:08.260Z,64.60
2022-09-10T21:46:36.945Z,66.30
2022-09-10T21:49:05.224Z,67.19
2022-09-10T21:51:32.884Z,68.45
2022-09-10T21:54:00.402Z,69.27
2022-09-10T21:56:29.912Z,69.59
2022-09-10T21:58:59.908Z,70.02
2022-09-10T22:01:33.024Z,70.84
2022-09-10T22:04:01.191Z,69.87
2022-09-10T22:06:30.981Z,70.27
2022-09-10T22:09:01.456Z,71.82
2022-09-10T22:11:37.915Z,73.14
2022-09-10T22:14:08.617Z,73.83
2022-09-10T22:16:36.296Z,73.84
2022-09-10T22:19:07.332Z,73.50
2022-09-10T22:21:38.581Z,71.70
2022-09-10T22:24:06.623Z,70.19
2022-09-10T22:26:34.917Z,69.55
2022-09-10T22:29:03.526Z,69.55
2022-09-10T22:31:33.334Z,71.28
2022-09-10T22:34:07.186Z,73.37
2022-09-10T22:36:39.860Z,73.02
2022-09-10T22:39:13.107Z,73.65
2022-09-10T22:41:41.575Z,74.73
2022-09-10T22:44:09.734Z,73.78
2022-09-10T22:46:38.288Z,72.28
2022-09-10T22:49:06.591Z,75.31
2022-09-10T22:51:37.093Z,75.29
2022-09-10T22:54:06.422Z,76.41
2022-09-10T22:56:36.044Z,76.07
2022-09-10T22:59:05.578Z,77.11
2022-09-10T23:01:37.862Z,77.97
2022-09-10T23:04:06.452Z,75.60
2022-09-10T23:06:36.847Z,75.72
2022-09-10T23:09:11.857Z,75.90
2022-09-10T23:11:41.783Z,78.76
2022-09-10T23:14:13.347Z,79.49
2022-09-10T23:16:43.587Z,80.42
2022-09-10T23:19:17.137Z,83.09
2022-09-10T23:21:46.956Z,81.39
2022-09-10T23:24:16.553Z,81.07
2022-09-10T23:26:44.275Z,80.03
2022-09-10T23:29:13.448Z,76.99
2022-09-10T23:31:42.227Z,74.88
2022-09-10T23:34:18.679Z,75.31
2022-09-10T23:36:48.606Z,75.97
2022-09-10T23:39:20.027Z,71.98
2022-09-10T23:41:52.303Z,71.82
2022-09-10T23:44:20.629Z,72.75
2022-09-10T23:46:48.664Z,71.88
2022-09-10T23:49:16.300Z,71.90
2022-09-10T23:51:49.127Z,73.88
2022-09-10T23:54:18.107Z,73.83
2022-09-10T23:56:45.746Z,73.34
2022-09-10T23:59:13.138Z,72.67
